Time;durP1;ratioP1;P1;durP2;ratioP2;P2;SDS_P1;SDS_P2;PMS_P1;PMS_P2;Temp;Humidity;BMP_temperature;BMP_pressure;BME280_temperature;BME280_humidity;BME280_pressure;Samples;Min_cycle;Max_cycle;Signal;HPM_P1;HPM_P2
2022/08/10 00:01:27;;;;;;;;;;;24.60;52.40;;;;;;5074074;28;20395;-96
2022/08/10 00:03:53;;;;;;;;;;;24.50;53.00;;;;;;5074023;28;19967;-96
2022/08/10 00:06:18;;;;;;;;;;;24.40;53.10;;;;;;5074010;28;20392;-96
2022/08/10 00:08:44;;;;;;;;;;;24.40;53.50;;;;;;5073722;28;19941;-96
2022/08/10 00:11:09;;;;;;;;;;;24.30;54.00;;;;;;5073988;28;19942;-96
2022/08/10 00:13:35;;;;;;;;;;;24.30;54.10;;;;;;5073967;28;20405;-96
2022/08/10 00:16:01;;;;;;;;;;;24.30;54.00;;;;;;5073915;28;19939;-96
2022/08/10 00:18:26;;;;;;;;;;;24.30;53.80;;;;;;5073881;28;20429;-96
2022/08/10 00:20:52;;;;;;;;;;;24.30;53.70;;;;;;5076558;28;19982;-96
2022/08/10 00:23:18;;;;;;;;;;;24.40;53.60;;;;;;5077620;28;19945;-96
2022/08/10 00:25:44;;;;;;;;;;;24.40;53.40;;;;;;5078097;28;20406;-96
2022/08/10 00:28:09;;;;;;;;;;;24.40;53.10;;;;;;5077773;28;20458;-96
2022/08/10 00:30:35;;;;;;;;;;;24.50;52.60;;;;;;5077743;28;20028;-96
2022/08/10 00:33:01;;;;;;;;;;;24.50;52.30;;;;;;5077422;28;19942;-96
2022/08/10 00:35:26;;;;;;;;;;;24.60;52.10;;;;;;5077605;28;19936;-96
2022/08/10 00:37:52;;;;;;;;;;;24.60;51.40;;;;;;5077515;28;19935;-96
2022/08/10 00:40:17;;;;;;;;;;;24.70;51.30;;;;;;5077225;28;19947;-96
2022/08/10 00:42:43;;;;;;;;;;;24.70;51.00;;;;;;5059259;28;20322;-96
2022/08/10 00:45:09;;;;;;;;;;;24.70;50.70;;;;;;5077749;28;19942;-96
2022/08/10 00:47:34;;;;;;;;;;;24.80;50.60;;;;;;5059211;28;20357;-96
2022/08/10 00:50:00;;;;;;;;;;;24.80;50.40;;;;;;5077656;28;19945;-96
2022/08/10 00:52:26;;;;;;;;;;;24.80;50.60;;;;;;5077314;28;20291;-96
2022/08/10 00:54:51;;;;;;;;;;;24.80;50.40;;;;;;5077510;28;20280;-96
2022/08/10 00:57:17;;;;;;;;;;;24.80;50.60;;;;;;5076879;28;19944;-96
2022/08/10 00:59:43;;;;;;;;;;;24.70;50.20;;;;;;5076658;28;20331;-96
2022/08/10 01:02:09;;;;;;;;;;;24.80;50.20;;;;;;5077155;28;19943;-96
2022/08/10 01:04:34;;;;;;;;;;;24.80;50.30;;;;;;5077094;28;19941;-96
2022/08/10 01:07:03;;;;;;;;;;;24.80;50.30;;;;;;5058811;28;20037;-96
2022/08/10 01:09:47;;;;;;;;;;;24.80;50.20;;;;;;5077737;28;20033;-96
2022/08/10 01:12:25;;;;;;;;;;;24.70;50.40;;;;;;5076936;28;19938;-96
2022/08/10 01:15:02;;;;;;;;;;;24.60;50.90;;;;;;5077204;28;19960;-96
2022/08/10 01:17:46;;;;;;;;;;;24.50;51.00;;;;;;5076602;28;19937;-96
2022/08/10 01:20:15;;;;;;;;;;;24.40;51.20;;;;;;5076819;28;19984;-96
2022/08/10 01:22:43;;;;;;;;;;;24.30;51.60;;;;;;5076777;28;19945;-96
2022/08/10 01:25:09;;;;;;;;;;;24.30;52.20;;;;;;5076737;28;19941;-96
2022/08/10 01:27:43;;;;;;;;;;;24.20;51.90;;;;;;5076655;28;20453;-96
2022/08/10 01:30:10;;;;;;;;;;;24.20;52.20;;;;;;5076323;28;19941;-96
2022/08/10 01:32:39;;;;;;;;;;;24.10;52.10;;;;;;5076472;28;19964;-96
2022/08/10 01:35:10;;;;;;;;;;;24.00;52.50;;;;;;5076563;28;19947;-95
2022/08/10 01:37:37;;;;;;;;;;;24.00;52.40;;;;;;5058166;28;19966;-96
2022/08/10 01:40:08;;;;;;;;;;;23.90;52.80;;;;;;5076428;28;20020;-96
2022/08/10 01:42:35;;;;;;;;;;;23.90;53.00;;;;;;5076106;28;19934;-96
2022/08/10 01:45:03;;;;;;;;;;;23.90;52.70;;;;;;5076666;28;19943;-96
2022/08/10 01:50:32;;;;;;;;;;;23.80;53.20;;;;;;5076020;28;19944;-96
2022/08/10 01:53:05;;;;;;;;;;;23.70;53.30;;;;;;5057983;28;19938;-96
2022/08/10 01:55:32;;;;;;;;;;;23.70;53.60;;;;;;5076201;28;20021;-96
2022/08/10 01:57:59;;;;;;;;;;;23.70;53.60;;;;;;5075474;28;20362;-96
2022/08/10 02:00:26;;;;;;;;;;;23.70;53.70;;;;;;5076036;28;19950;-96
2022/08/10 02:02:52;;;;;;;;;;;23.60;53.70;;;;;;5075764;28;19948;-96
2022/08/10 02:05:18;;;;;;;;;;;23.60;54.60;;;;;;5075984;28;19943;-96
2022/08/10 02:07:45;;;;;;;;;;;23.50;55.60;;;;;;5075649;28;19997;-96
2022/08/10 02:10:13;;;;;;;;;;;23.40;56.70;;;;;;5075874;28;19941;-96
2022/08/10 02:12:41;;;;;;;;;;;23.30;56.90;;;;;;5075576;28;19939;-96
2022/08/10 02:15:09;;;;;;;;;;;23.20;57.30;;;;;;5075812;28;19950;-96
2022/08/10 02:17:36;;;;;;;;;;;23.00;59.40;;;;;;5075414;28;19937;-96
2022/08/10 02:20:04;;;;;;;;;;;22.80;60.50;;;;;;5075634;28;20005;-96
2022/08/10 02:22:30;;;;;;;;;;;22.70;61.80;;;;;;5075513;28;19940;-96
2022/08/10 02:24:57;;;;;;;;;;;22.50;60.60;;;;;;5075556;28;19932;-96
2022/08/10 02:27:23;;;;;;;;;;;22.40;61.70;;;;;;5075178;28;19928;-96
2022/08/10 02:29:49;;;;;;;;;;;22.30;61.40;;;;;;5075471;28;19989;-96
2022/08/10 02:32:16;;;;;;;;;;;22.20;63.10;;;;;;5075440;28;19988;-96
2022/08/10 02:34:42;;;;;;;;;;;22.00;62.70;;;;;;5075388;28;19958;-96
2022/08/10 02:37:07;;;;;;;;;;;21.90;64.30;;;;;;5075278;28;20336;-96
2022/08/10 02:39:34;;;;;;;;;;;21.80;64.60;;;;;;5075169;28;20475;-96
2022/08/10 02:42:02;;;;;;;;;;;21.80;65.60;;;;;;5074409;28;19941;-96
2022/08/10 02:44:46;;;;;;;;;;;21.60;65.30;;;;;;5075227;28;19948;-96
2022/08/10 02:47:15;;;;;;;;;;;21.60;65.00;;;;;;5075150;28;19941;-96
2022/08/10 02:49:42;;;;;;;;;;;21.60;64.00;;;;;;5075385;28;20429;-96
2022/08/10 02:52:13;;;;;;;;;;;21.60;64.70;;;;;;5075004;28;20389;-96
2022/08/10 02:54:43;;;;;;;;;;;21.70;63.80;;;;;;5075025;28;20022;-96
2022/08/10 02:57:14;;;;;;;;;;;21.80;63.10;;;;;;5074556;28;19943;-96
2022/08/10 02:59:44;;;;;;;;;;;21.80;63.50;;;;;;5074402;28;19971;-96
2022/08/10 03:02:13;;;;;;;;;;;21.90;63.50;;;;;;5074880;28;19938;-96
2022/08/10 03:04:42;;;;;;;;;;;21.80;64.00;;;;;;5074834;28;19937;-96
2022/08/10 03:07:10;;;;;;;;;;;21.80;64.00;;;;;;5056569;28;20452;-96
2022/08/10 03:09:37;;;;;;;;;;;21.70;64.10;;;;;;5074681;28;19942;-96
2022/08/10 03:12:05;;;;;;;;;;;21.60;65.30;;;;;;5074647;28;19940;-96
2022/08/10 03:14:33;;;;;;;;;;;21.40;67.80;;;;;;5074914;28;20393;-96
2022/08/10 03:17:00;;;;;;;;;;;21.20;69.00;;;;;;5074583;28;19944;-96
2022/08/10 03:19:26;;;;;;;;;;;21.10;67.80;;;;;;5056205;28;19961;-96
2022/08/10 03:21:53;;;;;;;;;;;21.20;68.30;;;;;;5074800;28;19938;-95
2022/08/10 03:24:21;;;;;;;;;;;21.20;68.40;;;;;;5074246;28;19944;-95
2022/08/10 03:26:51;;;;;;;;;;;21.20;67.90;;;;;;5056224;28;19944;-96
2022/08/10 03:29:17;;;;;;;;;;;21.10;68.10;;;;;;5074427;28;19983;-95
2022/08/10 03:31:44;;;;;;;;;;;21.00;68.50;;;;;;5074381;28;20402;-96
2022/08/10 03:34:10;;;;;;;;;;;21.00;66.80;;;;;;5056159;28;20359;-96
2022/08/10 03:36:35;;;;;;;;;;;21.00;66.20;;;;;;5074136;28;19960;-96
2022/08/10 03:39:01;;;;;;;;;;;21.20;65.80;;;;;;5074506;28;19964;-96
2022/08/10 03:41:40;;;;;;;;;;;21.30;65.80;;;;;;5074023;28;19982;-96
2022/08/10 03:44:06;;;;;;;;;;;21.30;63.90;;;;;;5074502;28;19943;-96
2022/08/10 03:46:33;;;;;;;;;;;21.30;65.00;;;;;;5074223;28;19935;-96
2022/08/10 03:49:00;;;;;;;;;;;21.30;65.00;;;;;;5074505;28;19946;-96
2022/08/10 03:51:26;;;;;;;;;;;21.30;63.50;;;;;;5073920;28;19986;-96
2022/08/10 03:53:52;;;;;;;;;;;21.30;64.40;;;;;;5074172;28;19937;-96
2022/08/10 03:56:17;;;;;;;;;;;21.20;65.20;;;;;;5073816;28;19935;-96
2022/08/10 03:58:43;;;;;;;;;;;21.20;65.90;;;;;;5073513;28;19953;-96
2022/08/10 04:01:09;;;;;;;;;;;21.10;66.80;;;;;;5074104;28;19992;-96
2022/08/10 04:03:35;;;;;;;;;;;21.00;67.90;;;;;;5073761;28;20396;-96
2022/08/10 04:06:01;;;;;;;;;;;20.90;67.40;;;;;;5074054;28;19950;-96
2022/08/10 04:08:27;;;;;;;;;;;20.90;68.10;;;;;;5073803;28;20401;-96
2022/08/10 04:10:52;;;;;;;;;;;20.80;68.60;;;;;;5074276;28;19941;-96
2022/08/10 04:13:18;;;;;;;;;;;20.90;69.40;;;;;;5073690;28;19941;-96
2022/08/10 04:15:43;;;;;;;;;;;20.80;69.70;;;;;;5073990;28;20438;-96
2022/08/10 04:18:09;;;;;;;;;;;20.70;70.50;;;;;;5073570;28;19971;-96
2022/08/10 04:20:47;;;;;;;;;;;20.50;71.40;;;;;;5074161;28;19963;-96
2022/08/10 04:23:20;;;;;;;;;;;20.30;72.00;;;;;;5055654;28;19943;-96
2022/08/10 04:25:45;;;;;;;;;;;20.40;71.90;;;;;;5055645;28;19942;-96
2022/08/10 04:28:11;;;;;;;;;;;20.50;72.50;;;;;;5074124;28;19937;-96
2022/08/10 04:30:38;;;;;;;;;;;20.40;72.80;;;;;;5073723;28;19950;-96
2022/08/10 04:33:05;;;;;;;;;;;20.40;73.10;;;;;;5074062;28;19994;-96
2022/08/10 04:35:31;;;;;;;;;;;20.30;73.50;;;;;;5073633;28;20363;-96
2022/08/10 04:37:57;;;;;;;;;;;20.30;73.80;;;;;;5073910;28;19992;-96
2022/08/10 04:40:23;;;;;;;;;;;20.30;73.30;;;;;;5055430;28;19992;-96
2022/08/10 04:42:49;;;;;;;;;;;20.30;73.10;;;;;;5073694;28;19996;-96
2022/08/10 04:45:14;;;;;;;;;;;20.50;72.90;;;;;;5073355;28;20035;-96
2022/08/10 04:47:40;;;;;;;;;;;20.40;72.60;;;;;;5073960;28;19944;-96
2022/08/10 04:50:06;;;;;;;;;;;20.50;72.50;;;;;;5073610;28;20406;-96
2022/08/10 04:52:31;;;;;;;;;;;20.60;71.70;;;;;;5055349;28;19945;-96
2022/08/10 04:54:57;;;;;;;;;;;20.60;71.70;;;;;;5073504;28;20390;-96
2022/08/10 04:57:23;;;;;;;;;;;20.70;72.20;;;;;;5055169;28;19942;-96
2022/08/10 04:59:48;;;;;;;;;;;20.80;71.90;;;;;;5073083;28;20404;-96
2022/08/10 05:02:14;;;;;;;;;;;20.90;75.00;;;;;;5072984;28;19962;-96
2022/08/10 05:04:40;;;;;;;;;;;20.80;73.40;;;;;;5073077;28;19947;-96
2022/08/10 05:07:07;;;;;;;;;;;20.90;74.70;;;;;;5075864;28;19943;-96
2022/08/10 05:09:33;;;;;;;;;;;21.00;74.70;;;;;;5058800;28;19962;-95
2022/08/10 05:11:58;;;;;;;;;;;21.00;72.00;;;;;;5076837;28;19942;-96
2022/08/10 05:14:24;;;;;;;;;;;21.10;73.20;;;;;;5076767;28;19945;-96
2022/08/10 05:16:49;;;;;;;;;;;21.30;73.60;;;;;;5076762;28;19936;-96
2022/08/10 05:19:15;;;;;;;;;;;21.50;72.80;;;;;;5076991;28;20099;-96
2022/08/10 05:21:40;;;;;;;;;;;21.60;71.80;;;;;;5076547;28;19981;-96
2022/08/10 05:24:06;;;;;;;;;;;21.70;69.60;;;;;;5076691;28;20308;-96
2022/08/10 05:26:31;;;;;;;;;;;21.80;71.60;;;;;;5076548;28;20390;-96
2022/08/10 05:28:57;;;;;;;;;;;21.80;71.50;;;;;;5076527;28;19946;-96
2022/08/10 05:31:23;;;;;;;;;;;21.80;72.10;;;;;;5077054;28;19985;-96
2022/08/10 05:33:49;;;;;;;;;;;21.90;71.80;;;;;;5076368;28;19950;-96
2022/08/10 05:36:14;;;;;;;;;;;22.00;71.50;;;;;;5076861;28;19963;-96
2022/08/10 05:38:41;;;;;;;;;;;22.20;71.80;;;;;;5076553;28;19959;-96
2022/08/10 05:41:07;;;;;;;;;;;22.30;72.60;;;;;;5076663;28;20030;-96
2022/08/10 05:43:33;;;;;;;;;;;22.40;70.00;;;;;;5076188;28;20374;-96
2022/08/10 05:45:58;;;;;;;;;;;22.40;68.70;;;;;;5058206;28;19945;-96
2022/08/10 05:48:24;;;;;;;;;;;22.50;66.40;;;;;;5076775;28;20307;-96
2022/08/10 05:50:49;;;;;;;;;;;22.50;65.30;;;;;;5076172;28;20003;-96
2022/08/10 05:53:15;;;;;;;;;;;22.60;65.20;;;;;;5076274;28;20357;-96
2022/08/10 05:55:41;;;;;;;;;;;22.70;65.70;;;;;;5076600;28;19953;-96
2022/08/10 05:58:06;;;;;;;;;;;22.80;65.40;;;;;;5076239;28;19978;-96
2022/08/10 06:00:33;;;;;;;;;;;22.90;65.00;;;;;;5076065;28;20025;-96
2022/08/10 06:03:00;;;;;;;;;;;23.00;64.20;;;;;;5076528;28;20382;-96
2022/08/10 06:05:27;;;;;;;;;;;23.10;63.80;;;;;;5076709;28;19947;-96
2022/08/10 06:08:05;;;;;;;;;;;23.20;63.30;;;;;;5076216;28;19984;-96
2022/08/10 06:10:32;;;;;;;;;;;23.30;62.70;;;;;;5058065;28;19940;-96
2022/08/10 06:15:42;;;;;;;;;;;23.70;61.30;;;;;;5076156;28;19942;-96
2022/08/10 06:18:08;;;;;;;;;;;23.90;59.80;;;;;;5075396;28;19936;-96
2022/08/10 06:20:34;;;;;;;;;;;24.00;58.70;;;;;;5057312;28;20029;-96
2022/08/10 06:23:00;;;;;;;;;;;24.10;57.60;;;;;;5075977;28;20381;-96
2022/08/10 06:25:29;;;;;;;;;;;24.20;56.80;;;;;;5075680;28;19937;-96
2022/08/10 06:27:56;;;;;;;;;;;24.30;56.10;;;;;;5057397;28;19992;-96
2022/08/10 06:30:22;;;;;;;;;;;24.40;54.70;;;;;;5075623;28;19954;-96
2022/08/10 06:32:49;;;;;;;;;;;24.60;54.60;;;;;;5075130;28;20023;-96
2022/08/10 06:35:15;;;;;;;;;;;24.60;53.70;;;;;;5075223;28;19989;-96
2022/08/10 06:37:42;;;;;;;;;;;24.70;53.20;;;;;;5074973;28;20085;-96
2022/08/10 06:40:08;;;;;;;;;;;24.80;53.10;;;;;;5075616;28;20004;-96
2022/08/10 06:42:36;;;;;;;;;;;24.90;53.50;;;;;;5075544;28;19984;-96
2022/08/10 06:45:04;;;;;;;;;;;25.00;53.20;;;;;;5075177;28;19943;-96
2022/08/10 06:47:38;;;;;;;;;;;25.10;52.40;;;;;;5056897;28;20428;-96
2022/08/10 06:50:08;;;;;;;;;;;25.20;52.10;;;;;;5056749;28;19946;-96
2022/08/10 06:52:34;;;;;;;;;;;25.30;52.00;;;;;;5078969;28;19940;-96
2022/08/10 06:55:01;;;;;;;;;;;25.40;51.70;;;;;;5088010;28;19939;-96
2022/08/10 06:57:29;;;;;;;;;;;25.40;51.70;;;;;;5084603;28;20027;-96
2022/08/10 06:59:57;;;;;;;;;;;25.50;52.00;;;;;;5086436;28;20050;-96
2022/08/10 07:02:25;;;;;;;;;;;25.50;52.10;;;;;;5071553;28;19939;-96
2022/08/10 07:04:54;;;;;;;;;;;25.50;51.70;;;;;;5071426;28;19950;-96
2022/08/10 07:07:21;;;;;;;;;;;25.70;51.40;;;;;;5089959;28;19978;-96
2022/08/10 07:09:48;;;;;;;;;;;25.70;50.90;;;;;;5089630;28;19939;-96
2022/08/10 07:12:14;;;;;;;;;;;25.80;50.60;;;;;;5090050;28;19973;-96
2022/08/10 07:14:42;;;;;;;;;;;25.90;50.60;;;;;;5072387;28;19962;-96
2022/08/10 07:17:13;;;;;;;;;;;26.00;50.80;;;;;;5075749;28;19945;-96
2022/08/10 07:19:44;;;;;;;;;;;26.10;50.80;;;;;;5078328;28;20018;-96
2022/08/10 07:22:20;;;;;;;;;;;26.20;50.10;;;;;;5081691;28;19950;-96
2022/08/10 07:24:48;;;;;;;;;;;26.30;49.70;;;;;;5079545;28;19943;-96
2022/08/10 07:27:17;;;;;;;;;;;26.30;49.40;;;;;;5096790;28;19945;-96
2022/08/10 07:29:46;;;;;;;;;;;26.50;48.40;;;;;;5078286;28;19945;-96
2022/08/10 07:32:15;;;;;;;;;;;26.60;47.70;;;;;;5080738;28;20010;-96
2022/08/10 07:34:56;;;;;;;;;;;26.70;47.00;;;;;;5098508;28;19952;-96
2022/08/10 07:37:45;;;;;;;;;;;26.70;46.90;;;;;;5089578;28;19960;-96
2022/08/10 07:40:22;;;;;;;;;;;26.80;46.00;;;;;;5082630;28;19965;-98
2022/08/10 07:42:59;;;;;;;;;;;26.80;45.20;;;;;;5093745;28;19956;-96
2022/08/10 07:45:27;;;;;;;;;;;26.90;44.90;;;;;;5064264;28;19947;-96
2022/08/10 07:48:05;;;;;;;;;;;26.80;44.60;;;;;;5081228;28;19937;-96
2022/08/10 07:50:32;;;;;;;;;;;26.80;44.50;;;;;;5081208;28;19941;-96
2022/08/10 07:53:06;;;;;;;;;;;26.80;43.70;;;;;;5088201;28;19940;-96
2022/08/10 07:55:35;;;;;;;;;;;26.80;43.90;;;;;;5079858;28;19941;-96
2022/08/10 07:58:04;;;;;;;;;;;26.90;43.30;;;;;;5096398;22;19976;-96
2022/08/10 08:00:30;;;;;;;;;;;27.00;43.80;;;;;;5072174;28;19940;-95
2022/08/10 08:02:57;;;;;;;;;;;26.90;44.10;;;;;;5071722;28;19936;-95
2022/08/10 08:05:27;;;;;;;;;;;27.10;44.20;;;;;;5072057;28;19940;-95
2022/08/10 08:07:54;;;;;;;;;;;27.20;43.90;;;;;;5047788;28;20314;-95
2022/08/10 08:10:21;;;;;;;;;;;27.20;42.60;;;;;;5053777;28;19958;-96
2022/08/10 08:12:47;;;;;;;;;;;27.20;43.10;;;;;;5071645;28;19939;-96
2022/08/10 08:15:15;;;;;;;;;;;27.30;42.10;;;;;;5072082;28;19954;-95
2022/08/10 08:17:41;;;;;;;;;;;27.30;41.90;;;;;;5071794;28;19942;-96
2022/08/10 08:20:07;;;;;;;;;;;27.30;42.60;;;;;;5071593;28;19972;-96
2022/08/10 08:22:34;;;;;;;;;;;27.30;42.60;;;;;;5071947;28;20014;-95
2022/08/10 08:25:00;;;;;;;;;;;27.20;42.20;;;;;;5053184;28;20349;-96
2022/08/10 08:27:27;;;;;;;;;;;27.30;42.50;;;;;;5070973;28;20004;-96
2022/08/10 08:29:53;;;;;;;;;;;27.20;42.60;;;;;;5071380;28;19945;-96
2022/08/10 08:32:22;;;;;;;;;;;27.20;43.40;;;;;;5053382;28;20008;-96
2022/08/10 08:34:48;;;;;;;;;;;27.20;42.70;;;;;;5071865;28;19949;-96
2022/08/10 08:37:15;;;;;;;;;;;27.20;42.20;;;;;;5071175;28;19938;-95
2022/08/10 08:39:41;;;;;;;;;;;27.20;43.00;;;;;;5070830;28;20029;-94
2022/08/10 08:42:19;;;;;;;;;;;27.30;41.20;;;;;;5073667;28;19942;-95
2022/08/10 08:44:44;;;;;;;;;;;27.50;42.00;;;;;;5074630;28;20384;-96
2022/08/10 08:47:28;;;;;;;;;;;27.50;41.60;;;;;;5074595;28;20020;-95
2022/08/10 08:50:06;;;;;;;;;;;27.60;39.60;;;;;;5074484;28;19936;-96
2022/08/10 08:52:36;;;;;;;;;;;27.60;40.10;;;;;;5073227;28;19940;-95
2022/08/10 08:55:14;;;;;;;;;;;27.70;40.20;;;;;;5074569;28;19972;-95
2022/08/10 08:58:00;;;;;;;;;;;27.90;40.30;;;;;;5055741;28;19945;-96
2022/08/10 09:00:40;;;;;;;;;;;28.00;39.70;;;;;;5055974;28;19946;-96
2022/08/10 09:03:06;;;;;;;;;;;28.20;40.40;;;;;;5074017;28;19935;-95
2022/08/10 09:05:50;;;;;;;;;;;28.40;42.10;;;;;;5075063;28;20120;-95
2022/08/10 09:08:19;;;;;;;;;;;28.60;40.50;;;;;;5066830;28;19947;-95
2022/08/10 09:11:00;;;;;;;;;;;28.70;40.50;;;;;;5055155;28;19947;-95
2022/08/10 09:13:26;;;;;;;;;;;28.70;39.60;;;;;;5073518;28;19948;-95
2022/08/10 09:16:04;;;;;;;;;;;28.70;39.40;;;;;;5059344;28;20337;-96
2022/08/10 09:18:32;;;;;;;;;;;28.80;40.30;;;;;;5052120;28;20005;-95
2022/08/10 09:21:20;;;;;;;;;;;28.90;39.30;;;;;;5053564;28;19942;-95
2022/08/10 09:23:49;;;;;;;;;;;29.00;38.20;;;;;;5035820;28;19945;-96
2022/08/10 09:26:19;;;;;;;;;;;29.00;39.30;;;;;;5053888;28;19963;-94
2022/08/10 09:28:45;;;;;;;;;;;29.10;38.00;;;;;;5071323;28;20394;-96
2022/08/10 09:31:12;;;;;;;;;;;29.20;38.20;;;;;;5072240;28;19940;-96
2022/08/10 09:33:48;;;;;;;;;;;29.20;37.10;;;;;;5054476;28;20346;-94
2022/08/10 09:36:33;;;;;;;;;;;29.20;36.00;;;;;;5073106;28;20002;-95
2022/08/10 09:39:01;;;;;;;;;;;29.20;35.80;;;;;;5072912;28;19962;-94
2022/08/10 09:41:38;;;;;;;;;;;29.20;36.90;;;;;;5073419;28;19939;-96
2022/08/10 09:44:30;;;;;;;;;;;29.20;36.50;;;;;;5073084;28;19941;-96
2022/08/10 09:47:08;;;;;;;;;;;29.10;36.00;;;;;;5052396;28;19940;-95
2022/08/10 09:49:37;;;;;;;;;;;29.20;37.60;;;;;;5073118;28;20036;-94
2022/08/10 09:52:11;;;;;;;;;;;29.40;37.90;;;;;;5055294;28;20015;-96
2022/08/10 09:54:57;;;;;;;;;;;29.60;35.80;;;;;;5072972;28;19946;-95
2022/08/10 09:57:49;;;;;;;;;;;29.80;35.80;;;;;;5031996;28;19945;-96
2022/08/10 10:00:18;;;;;;;;;;;30.00;37.00;;;;;;5055459;28;19984;-96
2022/08/10 10:02:51;;;;;;;;;;;30.10;36.20;;;;;;5073209;28;19988;-96
2022/08/10 10:05:26;;;;;;;;;;;30.10;34.10;;;;;;5055179;28;19950;-95
2022/08/10 10:07:56;;;;;;;;;;;30.20;33.40;;;;;;5066545;28;19987;-95
2022/08/10 10:10:27;;;;;;;;;;;30.20;33.20;;;;;;5072093;28;19943;-95
2022/08/10 10:12:55;;;;;;;;;;;30.00;32.00;;;;;;5072244;28;19951;-95
2022/08/10 10:15:33;;;;;;;;;;;30.00;33.30;;;;;;5072627;28;19944;-95
2022/08/10 10:18:02;;;;;;;;;;;29.90;34.30;;;;;;5072779;28;19940;-94
2022/08/10 10:20:36;;;;;;;;;;;30.00;34.30;;;;;;5072784;28;19950;-96
2022/08/10 10:23:14;;;;;;;;;;;30.10;32.70;;;;;;5072991;28;20357;-96
2022/08/10 10:25:43;;;;;;;;;;;30.20;33.40;;;;;;5072091;28;19952;-95
2022/08/10 10:28:12;;;;;;;;;;;30.20;30.90;;;;;;5054409;28;20008;-96
2022/08/10 10:30:44;;;;;;;;;;;30.30;31.70;;;;;;5072988;28;19939;-96
2022/08/10 10:33:22;;;;;;;;;;;30.40;33.30;;;;;;5054705;28;20379;-96
2022/08/10 10:35:51;;;;;;;;;;;30.50;34.00;;;;;;5053961;28;19992;-95
2022/08/10 10:38:18;;;;;;;;;;;30.60;32.20;;;;;;5072298;28;19944;-96
2022/08/10 10:41:08;;;;;;;;;;;30.70;30.90;;;;;;5072625;28;19998;-95
2022/08/10 10:43:52;;;;;;;;;;;30.70;31.20;;;;;;5072258;28;20056;-96
2022/08/10 10:46:23;;;;;;;;;;;30.70;34.50;;;;;;5072379;28;19941;-95
2022/08/10 10:48:49;;;;;;;;;;;30.90;32.40;;;;;;5072491;28;19978;-96
2022/08/10 10:51:14;;;;;;;;;;;31.00;31.30;;;;;;5073020;28;19979;-96
2022/08/10 10:54:01;;;;;;;;;;;31.20;31.00;;;;;;5072326;28;19937;-96
2022/08/10 10:56:45;;;;;;;;;;;31.10;28.90;;;;;;5053722;28;20047;-95
2022/08/10 10:59:12;;;;;;;;;;;30.80;29.60;;;;;;5054054;28;20081;-95
2022/08/10 11:01:37;;;;;;;;;;;30.80;31.50;;;;;;5072178;28;19938;-95
2022/08/10 11:04:13;;;;;;;;;;;30.80;31.60;;;;;;5071520;28;19942;-96
2022/08/10 11:06:44;;;;;;;;;;;30.80;30.90;;;;;;5051776;28;19949;-96
2022/08/10 11:09:26;;;;;;;;;;;31.00;31.10;;;;;;5068814;28;19934;-96
2022/08/10 11:11:54;;;;;;;;;;;31.10;31.10;;;;;;5072325;28;19942;-96
2022/08/10 11:14:36;;;;;;;;;;;31.20;30.80;;;;;;5071968;28;20025;-96
2022/08/10 11:17:10;;;;;;;;;;;31.20;30.20;;;;;;5071588;28;19945;-96
2022/08/10 11:19:44;;;;;;;;;;;31.30;31.60;;;;;;5072026;28;19960;-96
2022/08/10 11:22:26;;;;;;;;;;;31.60;32.10;;;;;;5053710;28;20042;-96
2022/08/10 11:25:27;;;;;;;;;;;31.70;31.90;;;;;;5071705;28;19944;-96
2022/08/10 11:28:11;;;;;;;;;;;31.90;34.00;;;;;;4990611;28;19949;-96
2022/08/10 11:31:03;;;;;;;;;;;32.10;31.70;;;;;;5047774;28;19958;-96
2022/08/10 11:33:46;;;;;;;;;;;31.80;32.20;;;;;;5049526;28;19949;-96
2022/08/10 11:36:19;;;;;;;;;;;31.80;29.90;;;;;;5071206;28;19941;-95
2022/08/10 11:39:03;;;;;;;;;;;32.00;30.10;;;;;;5070956;28;19962;-95
2022/08/10 11:41:39;;;;;;;;;;;32.10;32.00;;;;;;5071324;28;19940;-95
2022/08/10 11:44:10;;;;;;;;;;;32.20;31.60;;;;;;5071661;28;19937;-95
2022/08/10 11:46:39;;;;;;;;;;;32.30;31.90;;;;;;5071186;28;19945;-96
2022/08/10 11:49:08;;;;;;;;;;;32.60;32.70;;;;;;5070385;28;19955;-95
2022/08/10 11:51:44;;;;;;;;;;;33.00;31.30;;;;;;5071199;28;20030;-96
2022/08/10 11:54:32;;;;;;;;;;;33.20;32.50;;;;;;5071787;28;19947;-96
2022/08/10 12:09:15;;;;;;;;;;;32.90;31.80;;;;;;5106003;27;20442;-96
2022/08/10 12:11:40;;;;;;;;;;;34.20;29.30;;;;;;5107996;28;19952;-96
2022/08/10 12:14:12;;;;;;;;;;;34.60;30.70;;;;;;5108527;28;19938;-95
2022/08/10 12:16:39;;;;;;;;;;;35.00;27.80;;;;;;5109416;28;20054;-96
2022/08/10 12:19:10;;;;;;;;;;;35.40;29.30;;;;;;5109193;28;20033;-96
2022/08/10 12:21:39;;;;;;;;;;;35.60;27.60;;;;;;5108113;28;19934;-96
2022/08/10 12:24:10;;;;;;;;;;;35.80;26.20;;;;;;5109070;28;19938;-95
2022/08/10 12:26:56;;;;;;;;;;;35.60;26.20;;;;;;5108903;28;19998;-96
2022/08/10 12:29:40;;;;;;;;;;;35.90;27.80;;;;;;5108555;28;20348;-95
2022/08/10 12:32:10;;;;;;;;;;;35.20;26.10;;;;;;5108141;28;19945;-95
2022/08/10 12:34:55;;;;;;;;;;;35.20;26.30;;;;;;5108990;28;20384;-95
2022/08/10 12:37:28;;;;;;;;;;;35.60;27.20;;;;;;5107370;28;20191;-96
2022/08/10 12:40:09;;;;;;;;;;;36.20;26.30;;;;;;5108941;28;19986;-96
2022/08/10 12:42:53;;;;;;;;;;;36.70;25.10;;;;;;5107016;28;19951;-96
2022/08/10 12:45:25;;;;;;;;;;;37.10;24.80;;;;;;5107401;28;19982;-96
2022/08/10 12:47:57;;;;;;;;;;;37.20;23.60;;;;;;5107450;28;19967;-96
2022/08/10 12:50:30;;;;;;;;;;;37.10;23.50;;;;;;5117804;28;19951;-96
2022/08/10 12:53:05;;;;;;;;;;;37.10;24.00;;;;;;5116686;28;19941;-96
2022/08/10 13:04:06;;;;;;;;;;;37.20;27.30;;;;;;5026453;28;20049;-96
2022/08/10 13:10:49;;;;;;;;;;;41.00;20.70;;;;;;5172983;27;19949;-96
2022/08/10 13:13:18;;;;;;;;;;;41.80;20.60;;;;;;5155000;27;20031;-96
2022/08/10 13:15:48;;;;;;;;;;;41.80;19.20;;;;;;5174751;27;19944;-96
2022/08/10 13:18:22;;;;;;;;;;;41.80;19.90;;;;;;5154472;27;19942;-96
2022/08/10 13:20:52;;;;;;;;;;;42.00;19.00;;;;;;5156738;27;20366;-97
2022/08/10 13:23:21;;;;;;;;;;;43.20;18.70;;;;;;5158494;27;19941;-96
2022/08/10 13:25:50;;;;;;;;;;;43.90;18.40;;;;;;5175613;27;19955;-96
2022/08/10 13:28:26;;;;;;;;;;;43.10;18.50;;;;;;5154986;27;20290;-96
2022/08/10 13:30:53;;;;;;;;;;;43.10;18.90;;;;;;5175037;22;19987;-96
2022/08/10 13:33:25;;;;;;;;;;;44.50;17.20;;;;;;5085376;28;19975;-96
2022/08/10 13:35:56;;;;;;;;;;;44.80;17.00;;;;;;5086113;28;20480;-96
2022/08/10 13:38:23;;;;;;;;;;;44.30;17.70;;;;;;5087807;28;19936;-96
2022/08/10 13:40:53;;;;;;;;;;;44.80;16.90;;;;;;5089664;28;19948;-96
2022/08/10 13:43:25;;;;;;;;;;;45.30;16.30;;;;;;5091493;28;19990;-96
2022/08/10 13:45:56;;;;;;;;;;;46.50;15.40;;;;;;5089754;28;19958;-96
2022/08/10 13:48:24;;;;;;;;;;;45.90;15.20;;;;;;5085791;28;19955;-96
2022/08/10 13:50:51;;;;;;;;;;;44.50;16.60;;;;;;5085744;28;19944;-96
2022/08/10 13:53:20;;;;;;;;;;;44.10;16.60;;;;;;5091587;28;19994;-96
2022/08/10 13:55:58;;;;;;;;;;;43.80;18.00;;;;;;5086872;28;19962;-96
2022/08/10 13:58:35;;;;;;;;;;;43.10;18.00;;;;;;5093681;28;19948;-96
2022/08/10 14:01:24;;;;;;;;;;;43.00;19.90;;;;;;5092983;28;19930;-96
2022/08/10 14:03:59;;;;;;;;;;;42.50;17.00;;;;;;5092562;28;19946;-96
2022/08/10 14:06:58;;;;;;;;;;;43.10;17.50;;;;;;5094040;28;19962;-96
2022/08/10 14:09:42;;;;;;;;;;;43.90;17.40;;;;;;5092427;28;19932;-96
2022/08/10 14:14:49;;;;;;;;;;;45.50;15.40;;;;;;5967930;22;19971;-96
2022/08/10 14:17:21;;;;;;;;;;;45.80;16.20;;;;;;5069419;28;20192;-96
2022/08/10 14:19:52;;;;;;;;;;;46.10;15.10;;;;;;5060227;28;19943;-97
2022/08/10 14:22:27;;;;;;;;;;;46.40;15.20;;;;;;5059987;28;19946;-96
2022/08/10 14:25:03;;;;;;;;;;;47.20;14.20;;;;;;5059630;28;19974;-97
2022/08/10 14:27:37;;;;;;;;;;;48.30;13.40;;;;;;5039593;28;19945;-96
2022/08/10 14:30:13;;;;;;;;;;;48.00;13.90;;;;;;5058729;28;19928;-96
2022/08/10 14:32:55;;;;;;;;;;;47.00;14.70;;;;;;5058573;28;19945;-96
2022/08/10 14:35:27;;;;;;;;;;;47.50;13.50;;;;;;5056641;28;19939;-96
2022/08/10 14:37:59;;;;;;;;;;;47.20;14.60;;;;;;5057106;28;19926;-96
2022/08/10 14:40:32;;;;;;;;;;;47.20;13.90;;;;;;5052581;28;19998;-96
2022/08/10 14:43:00;;;;;;;;;;;46.00;15.30;;;;;;5053716;28;19920;-96
2022/08/10 14:45:31;;;;;;;;;;;45.10;16.20;;;;;;5053845;28;19947;-96
2022/08/10 14:48:18;;;;;;;;;;;44.90;15.00;;;;;;5055636;28;19941;-96
2022/08/10 14:50:44;;;;;;;;;;;44.30;15.50;;;;;;5038106;28;19954;-96
2022/08/10 14:55:54;;;;;;;;;;;43.60;16.20;;;;;;5086369;28;20052;-96
2022/08/10 15:00:17;;;;;;;;;;;43.20;17.10;;;;;;5108573;28;20050;-96
2022/08/10 15:02:47;;;;;;;;;;;42.90;16.70;;;;;;5095047;28;20004;-96
2022/08/10 15:05:15;;;;;;;;;;;43.60;16.60;;;;;;5094342;28;20010;-96
2022/08/10 15:07:45;;;;;;;;;;;45.20;15.20;;;;;;5112332;28;19982;-96
2022/08/10 15:10:16;;;;;;;;;;;45.70;15.40;;;;;;5092982;28;19947;-96
2022/08/10 15:12:42;;;;;;;;;;;46.60;14.00;;;;;;5112133;28;19940;-96